This is the latest recevied weather packets stored in our database for station/object KB0Y. If no packets are shown the sender has not sent any weather packets the latest 10 day(s).
| Time | Temp. | Humidity | Pressure | Rain* | Wind** | Luminosity | Snow |
|---|---|---|---|---|---|---|---|
| 1777922337 | 26.11° C | 40% | 1020.3 hPa | 0 mm | - | 563 W/m² | - |
| 1777922034 | 26.11° C | 40% | 1020.3 hPa | 0 mm | - | 562 W/m² | - |
| 1777921729 | 26.11° C | 42% | 1020.3 hPa | 0 mm | - | 565 W/m² | - |
| 1777921426 | 26.11° C | 40% | 1020.3 hPa | 0 mm | - | 560 W/m² | - |
| 1777921122 | 26.11° C | 44% | 1020.6 hPa | 0 mm | - | 562 W/m² | - |
| 1777920819 | 26.11° C | 43% | 1020.6 hPa | 0 mm | - | 565 W/m² | - |
| 1777920515 | 25.56° C | 43% | 1020.6 hPa | 0 mm | - | 566 W/m² | - |
| 1777920212 | 25.56° C | 43% | 1021 hPa | 0 mm | - | 509 W/m² | - |
| 1777919907 | 25.56° C | 46% | 1020.6 hPa | 0 mm | - | 563 W/m² | - |
| 1777919605 | 25.56° C | 45% | 1021 hPa | 0 mm | - | 561 W/m² | - |
| 1777919302 | 25.56° C | 44% | 1021 hPa | 0 mm | - | 562 W/m² | - |
| 1777919000 | 25° C | 45% | 1021 hPa | 0 mm | - | 555 W/m² | - |
| 1777918697 | 25° C | 46% | 1021 hPa | 0 mm | - | 552 W/m² | - |
| 1777918394 | 25° C | 45% | 1021 hPa | 0 mm | - | 546 W/m² | - |
| 1777918093 | 25° C | 45% | 1021.3 hPa | 0 mm | - | 541 W/m² | - |
| 1777917791 | 25° C | 47% | 1021.3 hPa | 0 mm | - | 529 W/m² | - |
| 1777917489 | 25° C | 46% | 1021.3 hPa | 0 mm | - | 513 W/m² | - |
| 1777917185 | 25° C | 46% | 1021.3 hPa | 0 mm | - | 540 W/m² | - |
| 1777916884 | 25° C | 45% | 1021.3 hPa | 0 mm | - | 540 W/m² | - |
| 1777916581 | 25° C | 44% | 1021.6 hPa | 0 mm | - | 542 W/m² | - |
| 1777916277 | 25° C | 46% | 1021.3 hPa | 0 mm | - | 538 W/m² | - |
| 1777915974 | 24.44° C | 44% | 1021 hPa | 0 mm | - | 536 W/m² | - |
| 1777915671 | 24.44° C | 47% | 1021 hPa | 0 mm | - | 526 W/m² | - |
| 1777915367 | 24.44° C | 45% | 1021.3 hPa | 0 mm | - | 533 W/m² | - |
| 1777915063 | 24.44° C | 45% | 1021.6 hPa | 0 mm | - | 488 W/m² | - |
* Rain latest hour (hover to see other rain measurements)
** Current wind speed in m/s (hover to see current wind gust speed)